Time;durP1;ratioP1;P1;durP2;ratioP2;P2;SDS_P1;SDS_P2;PMS_P1;PMS_P2;Temp;Humidity;BMP_temperature;BMP_pressure;BME280_temperature;BME280_humidity;BME280_pressure;Samples;Min_cycle;Max_cycle;Signal;HPM_P1;HPM_P2
2023/08/19 00:00:53;;;;;;;8.10;4.57;;;24.20;66.40;;;;;;5017928;28;20523;-74
2023/08/19 00:03:19;;;;;;;5.83;4.70;;;24.20;66.60;;;;;;5010983;28;20193;-73
2023/08/19 00:05:45;;;;;;;5.60;3.83;;;24.10;66.60;;;;;;5014558;28;20265;-73
2023/08/19 00:08:11;;;;;;;4.97;3.60;;;24.10;66.60;;;;;;5012659;28;20194;-73
2023/08/19 00:10:36;;;;;;;5.90;3.60;;;24.10;66.70;;;;;;5008048;28;20815;-75
2023/08/19 00:13:03;;;;;;;5.43;4.00;;;24.00;66.70;;;;;;5014712;28;20675;-73
2023/08/19 00:15:28;;;;;;;5.23;3.73;;;24.00;66.60;;;;;;5009779;28;20227;-74
2023/08/19 00:17:54;;;;;;;9.33;4.63;;;24.00;66.70;;;;;;5015273;28;20543;-74
2023/08/19 00:20:20;;;;;;;7.00;4.10;;;24.00;66.70;;;;;;5012768;28;20358;-74
2023/08/19 00:22:45;;;;;;;5.90;4.40;;;24.00;66.70;;;;;;5013104;28;20794;-74
2023/08/19 00:25:11;;;;;;;8.37;4.60;;;23.90;66.70;;;;;;5010163;28;20436;-74
2023/08/19 00:27:37;;;;;;;6.23;4.60;;;23.80;66.90;;;;;;5018363;28;20201;-76
2023/08/19 00:30:03;;;;;;;8.53;4.30;;;23.90;66.70;;;;;;5012030;28;20189;-74
2023/08/19 00:32:30;;;;;;;6.03;3.80;;;23.80;66.90;;;;;;5016762;28;20192;-74
2023/08/19 00:34:55;;;;;;;7.67;4.10;;;23.70;67.20;;;;;;5018895;28;20953;-73
2023/08/19 00:37:21;;;;;;;8.40;4.10;;;23.70;67.00;;;;;;5018504;28;20425;-73
2023/08/19 00:39:47;;;;;;;7.17;3.67;;;23.60;67.00;;;;;;5019895;28;20208;-72
2023/08/19 00:42:12;;;;;;;7.00;3.70;;;23.60;67.00;;;;;;5011329;28;20439;-73
2023/08/19 00:44:38;;;;;;;5.77;3.70;;;23.60;67.20;;;;;;5013235;28;20267;-73
2023/08/19 00:47:04;;;;;;;6.47;4.00;;;23.60;67.00;;;;;;5016497;28;20271;-73
2023/08/19 00:49:31;;;;;;;6.30;3.73;;;23.60;67.00;;;;;;5019325;28;20234;-73
2023/08/19 00:51:57;;;;;;;6.53;3.80;;;23.50;67.20;;;;;;5015554;28;20451;-73
2023/08/19 00:54:23;;;;;;;7.33;4.10;;;23.40;67.30;;;;;;5017392;28;20429;-72
2023/08/19 00:56:49;;;;;;;7.00;3.77;;;23.40;67.50;;;;;;5019217;28;20799;-72
2023/08/19 00:59:15;;;;;;;5.50;3.70;;;23.40;67.50;;;;;;5013129;28;20479;-73
2023/08/19 01:01:41;;;;;;;7.63;4.00;;;23.30;67.50;;;;;;5010031;28;20214;-72
2023/08/19 01:04:07;;;;;;;6.57;3.90;;;23.30;67.60;;;;;;5014475;28;20651;-72
2023/08/19 01:06:45;;;;;;;6.73;4.27;;;23.30;67.60;;;;;;5017928;28;20425;-73
2023/08/19 01:09:29;;;;;;;8.77;4.17;;;23.20;67.60;;;;;;5014999;28;20493;-73
2023/08/19 01:12:02;;;;;;;7.30;3.83;;;23.10;67.90;;;;;;5010238;28;20451;-72
2023/08/19 01:14:34;;;;;;;5.70;3.73;;;23.00;68.00;;;;;;5011045;28;20423;-73
2023/08/19 01:17:03;;;;;;;8.20;4.20;;;23.00;68.00;;;;;;5017253;28;20434;-73
2023/08/19 01:19:31;;;;;;;7.83;4.17;;;22.90;68.00;;;;;;5012060;28;20487;-73
2023/08/19 01:22:02;;;;;;;8.00;4.53;;;22.90;68.20;;;;;;5016238;28;20473;-74
2023/08/19 01:24:35;;;;;;;10.37;3.83;;;22.90;68.00;;;;;;5013212;28;20414;-73
2023/08/19 01:27:02;;;;;;;5.67;3.67;;;22.90;68.20;;;;;;5011708;28;20506;-73
2023/08/19 01:29:28;;;;;;;4.93;4.07;;;22.90;68.30;;;;;;5012177;28;20543;-73
2023/08/19 01:31:53;;;;;;;6.97;3.60;;;22.90;68.30;;;;;;5014703;28;20461;-72
2023/08/19 01:34:21;;;;;;;5.30;3.70;;;22.90;68.20;;;;;;5012785;28;20277;-72
2023/08/19 01:36:51;;;;;;;9.03;3.67;;;22.90;68.30;;;;;;5011818;28;20179;-73
2023/08/19 01:39:20;;;;;;;6.70;3.73;;;22.80;68.20;;;;;;5012454;28;20478;-72
2023/08/19 01:41:48;;;;;;;9.20;4.03;;;22.80;68.30;;;;;;5012296;28;20459;-73
2023/08/19 01:44:14;;;;;;;4.70;3.80;;;22.70;68.50;;;;;;5015024;28;20925;-73
2023/08/19 01:46:40;;;;;;;5.90;3.73;;;22.70;68.60;;;;;;5011681;28;20418;-73
2023/08/19 01:49:05;;;;;;;7.10;3.90;;;22.60;68.80;;;;;;5007657;28;20982;-72
2023/08/19 01:51:31;;;;;;;8.73;4.70;;;22.70;68.90;;;;;;5012923;28;20210;-73
2023/08/19 01:53:56;;;;;;;8.60;5.30;;;22.70;68.80;;;;;;5013783;28;20311;-74
2023/08/19 01:56:23;;;;;;;9.80;4.50;;;22.70;68.80;;;;;;5011991;28;20193;-73
2023/08/19 01:58:49;;;;;;;8.20;4.20;;;22.70;69.10;;;;;;5012185;28;20221;-73
2023/08/19 02:01:15;;;;;;;6.53;4.23;;;22.70;68.60;;;;;;5009887;28;20537;-74
2023/08/19 02:03:40;;;;;;;6.20;4.33;;;22.70;68.90;;;;;;5018188;28;20180;-73
2023/08/19 02:06:06;;;;;;;5.90;4.13;;;22.60;68.80;;;;;;5012837;28;20183;-73
2023/08/19 02:08:32;;;;;;;8.60;4.67;;;22.70;68.90;;;;;;5015680;28;20191;-74
2023/08/19 02:10:57;;;;;;;6.30;4.13;;;22.60;68.90;;;;;;5009904;28;20261;-73
2023/08/19 02:13:23;;;;;;;7.17;4.40;;;22.50;69.20;;;;;;5013597;28;20238;-73
2023/08/19 02:15:48;;;;;;;6.53;4.33;;;22.50;69.40;;;;;;5014185;28;20728;-72
2023/08/19 02:18:14;;;;;;;8.90;4.20;;;22.50;69.20;;;;;;5012673;28;20242;-73
2023/08/19 02:20:40;;;;;;;5.90;4.50;;;22.50;69.20;;;;;;5009601;28;20221;-74
2023/08/19 02:23:05;;;;;;;7.10;4.33;;;22.50;69.10;;;;;;5019306;28;20178;-72
2023/08/19 02:25:31;;;;;;;7.13;4.60;;;22.40;69.20;;;;;;5028803;28;20283;-72
2023/08/19 02:27:56;;;;;;;5.90;4.13;;;22.40;69.20;;;;;;5013672;28;20244;-73
2023/08/19 02:30:22;;;;;;;6.17;3.97;;;22.40;69.50;;;;;;5011827;28;20770;-73
2023/08/19 02:32:47;;;;;;;9.73;4.13;;;22.30;69.50;;;;;;5019177;28;20192;-72
2023/08/19 02:35:13;;;;;;;7.33;4.10;;;22.20;69.70;;;;;;5007662;28;20202;-73
2023/08/19 02:37:39;;;;;;;8.37;4.20;;;22.20;69.70;;;;;;5009608;28;20221;-72
2023/08/19 02:40:06;;;;;;;6.10;4.13;;;22.20;69.80;;;;;;5017565;28;20200;-72
2023/08/19 02:42:31;;;;;;;6.27;4.10;;;22.20;69.80;;;;;;5014637;28;20201;-72
2023/08/19 02:44:57;;;;;;;8.90;4.30;;;22.20;69.80;;;;;;5018170;28;20816;-73
2023/08/19 02:47:23;;;;;;;6.60;4.33;;;22.20;69.90;;;;;;5015122;28;20200;-72
2023/08/19 02:49:49;;;;;;;7.13;4.40;;;22.20;69.90;;;;;;5019776;28;20418;-73
2023/08/19 02:52:14;;;;;;;12.10;4.50;;;22.10;69.90;;;;;;5015145;28;20666;-72
2023/08/19 02:54:40;;;;;;;9.23;4.47;;;22.10;69.90;;;;;;5019545;28;20194;-73
2023/08/19 02:57:05;;;;;;;7.90;4.70;;;22.10;69.90;;;;;;5015475;28;20666;-72
2023/08/19 02:59:31;;;;;;;6.13;4.13;;;22.20;69.80;;;;;;5013531;28;20213;-72
2023/08/19 03:01:56;;;;;;;7.60;4.60;;;22.20;69.80;;;;;;5008337;28;20209;-72
2023/08/19 03:04:22;;;;;;;5.73;3.93;;;22.20;69.50;;;;;;5010744;28;20311;-74
2023/08/19 03:06:48;;;;;;;6.70;4.53;;;22.20;69.50;;;;;;5011015;28;20196;-72
2023/08/19 03:09:13;;;;;;;9.90;4.77;;;22.20;69.80;;;;;;5017747;28;20193;-73
2023/08/19 03:11:41;;;;;;;6.20;5.10;;;22.10;70.20;;;;;;5009748;28;20204;-73
2023/08/19 03:14:07;;;;;;;9.40;5.03;;;22.00;70.50;;;;;;5009612;28;20280;-73
2023/08/19 03:16:33;;;;;;;7.30;5.20;;;21.90;70.70;;;;;;5019158;28;20884;-73
2023/08/19 03:19:00;;;;;;;7.23;4.97;;;21.80;71.00;;;;;;5015177;28;20468;-73
2023/08/19 03:21:25;;;;;;;6.40;4.50;;;21.80;71.10;;;;;;5010039;28;20202;-73
2023/08/19 03:23:51;;;;;;;5.30;4.50;;;21.90;70.80;;;;;;5010881;28;21062;-73
2023/08/19 03:26:17;;;;;;;13.57;5.00;;;21.90;71.00;;;;;;5012714;28;20190;-72
2023/08/19 03:28:42;;;;;;;8.47;4.93;;;21.90;71.00;;;;;;5011526;28;20711;-72
2023/08/19 03:31:09;;;;;;;7.47;4.27;;;21.90;71.00;;;;;;5010993;28;20706;-73
2023/08/19 03:33:35;;;;;;;7.73;4.30;;;21.80;71.10;;;;;;5004012;28;20184;-73
2023/08/19 03:36:00;;;;;;;7.10;4.27;;;21.80;71.10;;;;;;5017536;28;20431;-72
2023/08/19 03:38:26;;;;;;;7.00;4.57;;;21.80;71.40;;;;;;5009687;28;20210;-73
2023/08/19 03:40:52;;;;;;;10.03;3.97;;;21.80;71.30;;;;;;5012004;28;20231;-74
2023/08/19 03:43:18;;;;;;;7.80;4.90;;;21.80;71.30;;;;;;5010255;28;20799;-71
2023/08/19 03:45:43;;;;;;;7.93;4.63;;;21.80;71.10;;;;;;5011827;28;20186;-73
2023/08/19 03:48:09;;;;;;;6.20;4.23;;;21.80;71.10;;;;;;5005573;28;20241;-73
2023/08/19 03:50:35;;;;;;;7.23;4.90;;;21.80;71.30;;;;;;5012264;28;20739;-73
2023/08/19 03:53:01;;;;;;;7.50;4.87;;;21.80;71.30;;;;;;5013483;28;20664;-73
2023/08/19 03:55:26;;;;;;;7.80;4.73;;;21.90;70.80;;;;;;5004204;28;20418;-74
2023/08/19 03:57:52;;;;;;;8.27;4.53;;;21.80;70.80;;;;;;5013275;28;20295;-72
2023/08/19 04:00:18;;;;;;;6.60;4.60;;;21.90;70.50;;;;;;5013687;28;20290;-72
2023/08/19 04:02:43;;;;;;;7.20;4.40;;;21.80;70.50;;;;;;5011485;28;20225;-73
2023/08/19 04:05:10;;;;;;;10.53;4.80;;;21.80;70.80;;;;;;5015381;28;20189;-73
2023/08/19 04:07:36;;;;;;;7.20;4.70;;;21.80;70.80;;;;;;5006930;28;20189;-73
2023/08/19 04:10:03;;;;;;;9.10;4.93;;;21.80;70.70;;;;;;5020923;28;20788;-73
2023/08/19 04:12:29;;;;;;;10.23;5.20;;;21.80;70.70;;;;;;5010589;28;20203;-72
2023/08/19 04:14:55;;;;;;;8.50;4.53;;;21.70;70.70;;;;;;5021759;28;20813;-73
2023/08/19 04:17:20;;;;;;;8.80;4.80;;;21.70;70.80;;;;;;5014683;28;20215;-71
2023/08/19 04:19:46;;;;;;;8.03;4.93;;;21.70;70.80;;;;;;5014731;28;20216;-74
2023/08/19 04:22:14;;;;;;;6.33;4.70;;;21.70;71.30;;;;;;5010688;28;20220;-74
2023/08/19 04:24:40;;;;;;;10.97;5.60;;;21.60;71.40;;;;;;5018104;28;20684;-73
2023/08/19 04:27:06;;;;;;;11.80;5.50;;;21.60;71.30;;;;;;5009538;28;20432;-73
2023/08/19 04:29:34;;;;;;;9.33;5.13;;;21.70;71.00;;;;;;5013639;28;20236;-72
2023/08/19 04:32:03;;;;;;;8.40;5.20;;;21.60;71.30;;;;;;5011293;28;20455;-72
2023/08/19 04:34:30;;;;;;;7.70;4.13;;;21.60;71.00;;;;;;5012831;28;20427;-72
2023/08/19 04:36:55;;;;;;;8.73;5.20;;;21.60;70.80;;;;;;5015592;28;20519;-72
2023/08/19 04:39:22;;;;;;;8.00;4.80;;;21.60;70.70;;;;;;5015034;28;20491;-72
2023/08/19 04:41:48;;;;;;;9.23;4.80;;;21.60;71.30;;;;;;5018708;28;20226;-72
2023/08/19 04:44:13;;;;;;;9.90;5.30;;;21.50;71.40;;;;;;5021151;28;20824;-72
2023/08/19 04:46:39;;;;;;;8.67;4.40;;;21.50;71.40;;;;;;5023447;28;20190;-71
2023/08/19 04:49:05;;;;;;;8.20;4.57;;;21.50;71.40;;;;;;5020998;28;20184;-72
2023/08/19 04:51:32;;;;;;;7.87;5.00;;;21.60;71.70;;;;;;5008086;28;20201;-72
2023/08/19 04:53:58;;;;;;;10.57;4.70;;;21.60;71.70;;;;;;5013762;28;20982;-73
2023/08/19 04:56:23;;;;;;;8.60;5.27;;;21.60;71.70;;;;;;5018856;28;20624;-73
2023/08/19 04:58:49;;;;;;;8.80;4.47;;;21.60;71.70;;;;;;5013430;28;20222;-73
2023/08/19 05:01:14;;;;;;;7.27;4.70;;;21.70;71.70;;;;;;5013665;28;20265;-72
2023/08/19 05:03:40;;;;;;;9.17;5.20;;;21.70;71.60;;;;;;5013314;28;20672;-72
2023/08/19 05:06:06;;;;;;;6.20;4.53;;;21.80;71.30;;;;;;5021279;28;20185;-73
2023/08/19 05:08:31;;;;;;;7.20;4.50;;;21.80;71.00;;;;;;5012443;28;20201;-73
2023/08/19 05:10:57;;;;;;;6.90;4.67;;;21.80;70.80;;;;;;5019267;28;20263;-73
2023/08/19 05:13:22;;;;;;;8.93;5.13;;;21.90;70.80;;;;;;5013527;28;20189;-73
2023/08/19 05:15:48;;;;;;;9.33;4.70;;;21.90;71.00;;;;;;5023183;28;20184;-72
2023/08/19 05:18:14;;;;;;;7.57;4.33;;;21.80;71.30;;;;;;5020530;28;20291;-72
2023/08/19 05:20:39;;;;;;;9.10;5.17;;;21.80;71.40;;;;;;5019441;28;20304;-72
2023/08/19 05:23:05;;;;;;;8.13;5.30;;;21.80;71.60;;;;;;5015384;28;20216;-72
2023/08/19 05:25:30;;;;;;;8.93;5.10;;;21.80;71.60;;;;;;5015689;28;20592;-72
2023/08/19 05:27:57;;;;;;;9.67;5.20;;;21.90;71.60;;;;;;5019253;28;20234;-72
2023/08/19 05:30:23;;;;;;;6.93;5.03;;;21.90;71.60;;;;;;5006167;28;20544;-73
2023/08/19 05:32:49;;;;;;;8.53;5.17;;;21.90;71.40;;;;;;5009224;28;20436;-73
2023/08/19 05:35:15;;;;;;;7.57;5.43;;;22.00;71.60;;;;;;5010504;28;20434;-73
2023/08/19 05:37:40;;;;;;;9.20;4.80;;;22.00;71.40;;;;;;5024377;28;20270;-73
2023/08/19 05:40:06;;;;;;;8.30;5.80;;;22.00;71.60;;;;;;5012904;28;20610;-73
2023/08/19 05:42:32;;;;;;;9.70;5.40;;;22.10;71.00;;;;;;5016718;28;20195;-75
2023/08/19 05:44:57;;;;;;;11.03;5.60;;;22.00;70.80;;;;;;5014460;28;20488;-74
2023/08/19 05:47:23;;;;;;;9.70;4.90;;;22.10;70.70;;;;;;5017944;28;20276;-73
2023/08/19 05:49:49;;;;;;;10.10;5.07;;;22.20;70.50;;;;;;5014366;28;20171;-73
2023/08/19 05:52:14;;;;;;;6.53;4.77;;;22.20;70.10;;;;;;5010494;28;20278;-73
2023/08/19 05:54:40;;;;;;;10.93;5.43;;;22.30;69.40;;;;;;5010930;28;20197;-73
2023/08/19 05:57:06;;;;;;;12.93;5.17;;;22.40;69.20;;;;;;5022745;28;20193;-72
2023/08/19 05:59:32;;;;;;;8.20;5.20;;;22.40;69.40;;;;;;5014380;28;20518;-72
2023/08/19 06:01:58;;;;;;;8.57;5.20;;;22.50;68.90;;;;;;5011760;28;20206;-74
2023/08/19 06:04:24;;;;;;;9.47;4.50;;;22.50;69.10;;;;;;5011670;28;20240;-74
2023/08/19 06:06:50;;;;;;;8.30;4.90;;;22.50;69.70;;;;;;5016098;28;20282;-74
2023/08/19 06:09:16;;;;;;;10.53;5.33;;;22.60;69.90;;;;;;5013939;28;20437;-73
2023/08/19 06:11:52;;;;;;;9.20;5.07;;;22.70;69.90;;;;;;5016141;28;20473;-74
2023/08/19 06:14:19;;;;;;;9.13;5.17;;;22.70;69.80;;;;;;5018789;28;20199;-73
2023/08/19 06:16:45;;;;;;;10.07;4.83;;;22.80;69.50;;;;;;5026143;28;20422;-72
2023/08/19 06:19:11;;;;;;;10.00;5.17;;;22.90;69.20;;;;;;5015672;28;20824;-72
2023/08/19 06:21:37;;;;;;;9.70;5.20;;;23.00;68.80;;;;;;5013473;28;20465;-73
2023/08/19 06:24:03;;;;;;;6.73;4.33;;;23.10;68.80;;;;;;5014361;28;20567;-73
2023/08/19 06:26:29;;;;;;;11.13;5.10;;;23.20;68.50;;;;;;5026053;28;20191;-73
2023/08/19 06:28:55;;;;;;;9.90;4.67;;;23.30;68.30;;;;;;5021334;28;20430;-73
2023/08/19 06:31:21;;;;;;;11.77;4.87;;;23.30;68.30;;;;;;5010521;28;20809;-73
2023/08/19 06:33:47;;;;;;;10.60;5.23;;;23.40;68.50;;;;;;5016236;28;20188;-73
2023/08/19 06:36:19;;;;;;;8.03;4.90;;;23.50;68.50;;;;;;5024772;28;20439;-72
2023/08/19 06:38:49;;;;;;;7.17;4.33;;;23.50;68.50;;;;;;5018418;28;20226;-71
2023/08/19 06:41:16;;;;;;;7.23;5.23;;;23.60;68.20;;;;;;5013358;28;20589;-73
2023/08/19 06:43:43;;;;;;;7.60;5.13;;;23.60;68.00;;;;;;5018459;28;20457;-73
2023/08/19 06:46:09;;;;;;;6.63;4.53;;;23.70;67.60;;;;;;5015801;28;20450;-73
2023/08/19 06:48:35;;;;;;;5.87;4.43;;;23.80;67.00;;;;;;5018577;28;20900;-73
2023/08/19 06:51:02;;;;;;;8.10;4.87;;;23.90;67.00;;;;;;5008730;28;20239;-73
2023/08/19 06:53:28;;;;;;;9.97;4.90;;;23.90;66.70;;;;;;5018246;28;20432;-73
2023/08/19 06:56:14;;;;;;;8.00;5.20;;;24.00;66.60;;;;;;5014738;28;20422;-72
2023/08/19 06:58:59;;;;;;;14.27;5.43;;;24.10;66.30;;;;;;5018509;28;20553;-75
2023/08/19 07:01:29;;;;;;;10.37;5.97;;;24.20;66.10;;;;;;5011315;28;20816;-74
2023/08/19 07:03:56;;;;;;;15.70;6.27;;;24.20;66.00;;;;;;5005682;28;20420;-73
2023/08/19 07:06:22;;;;;;;10.13;6.50;;;24.30;65.70;;;;;;5020214;28;20522;-73
2023/08/19 07:08:49;;;;;;;12.10;7.03;;;24.30;65.40;;;;;;5012138;28;20506;-73
2023/08/19 07:11:15;;;;;;;13.67;6.63;;;24.40;65.10;;;;;;5009228;28;20463;-73
2023/08/19 07:13:42;;;;;;;17.53;7.17;;;24.50;65.00;;;;;;5009591;28;20494;-72
2023/08/19 07:16:10;;;;;;;17.57;6.93;;;24.60;64.70;;;;;;5017517;28;20431;-74
2023/08/19 07:18:39;;;;;;;21.23;7.93;;;24.70;64.70;;;;;;5005176;28;20904;-72
2023/08/19 07:21:09;;;;;;;16.50;7.00;;;24.90;64.20;;;;;;5006532;28;20478;-73
2023/08/19 07:23:36;;;;;;;14.00;7.00;;;25.00;63.90;;;;;;5008908;28;20499;-72
2023/08/19 07:26:03;;;;;;;13.20;6.10;;;25.00;63.90;;;;;;5012309;28;20442;-74
2023/08/19 07:28:30;;;;;;;12.90;7.23;;;25.10;63.80;;;;;;5010988;28;20429;-74
2023/08/19 07:30:56;;;;;;;15.23;7.53;;;25.20;63.50;;;;;;5009248;28;20969;-74
2023/08/19 07:33:22;;;;;;;14.17;7.00;;;25.30;63.40;;;;;;5011469;28;20538;-73
2023/08/19 07:35:48;;;;;;;12.87;7.40;;;25.40;63.40;;;;;;5013215;28;20417;-73
2023/08/19 07:38:13;;;;;;;16.13;7.20;;;25.40;63.50;;;;;;5011716;28;20294;-74
2023/08/19 07:40:39;;;;;;;13.53;6.80;;;25.50;62.90;;;;;;5012908;28;20215;-72
2023/08/19 07:43:05;;;;;;;20.97;8.00;;;25.70;62.60;;;;;;5011666;28;20287;-74
2023/08/19 07:45:30;;;;;;;15.17;7.20;;;25.70;62.80;;;;;;5012084;28;20185;-73
2023/08/19 07:47:56;;;;;;;20.37;7.93;;;25.80;62.80;;;;;;5013662;28;20577;-74
2023/08/19 07:50:23;;;;;;;16.83;7.13;;;25.90;62.30;;;;;;5017747;28;20216;-74
2023/08/19 07:52:48;;;;;;;15.93;7.87;;;25.90;62.00;;;;;;5012770;28;20268;-74
2023/08/19 07:55:14;;;;;;;23.20;8.10;;;26.10;62.20;;;;;;5021867;28;20482;-74
2023/08/19 07:57:39;;;;;;;13.10;7.10;;;26.20;61.90;;;;;;5010142;28;20192;-73
2023/08/19 08:00:05;;;;;;;16.70;7.83;;;26.20;61.60;;;;;;5009497;28;20212;-73
2023/08/19 08:02:31;;;;;;;14.10;6.73;;;26.40;61.20;;;;;;5014581;28;20235;-73
2023/08/19 08:04:58;;;;;;;16.57;6.80;;;26.50;61.30;;;;;;5013520;28;20453;-73
2023/08/19 08:07:24;;;;;;;9.97;5.77;;;26.60;61.30;;;;;;5013995;28;20200;-74
2023/08/19 08:09:50;;;;;;;8.63;6.10;;;26.70;61.20;;;;;;5013512;28;20418;-72
2023/08/19 08:12:15;;;;;;;16.50;6.27;;;26.80;61.20;;;;;;5015091;28;20183;-73
2023/08/19 08:14:41;;;;;;;11.03;6.13;;;26.90;60.90;;;;;;5013002;28;20716;-73
2023/08/19 08:17:06;;;;;;;11.40;6.10;;;27.10;60.30;;;;;;5017370;28;20185;-74
2023/08/19 08:19:32;;;;;;;9.60;6.30;;;27.20;60.00;;;;;;5012805;28;20233;-72
2023/08/19 08:21:58;;;;;;;11.23;5.90;;;27.20;60.00;;;;;;5017370;28;20212;-74
2023/08/19 08:24:24;;;;;;;13.10;6.27;;;27.30;59.50;;;;;;5011569;28;20205;-74
2023/08/19 08:26:50;;;;;;;9.07;5.87;;;27.50;59.60;;;;;;5016835;28;20181;-73
2023/08/19 08:29:16;;;;;;;10.70;5.40;;;27.70;58.10;;;;;;5011247;28;20185;-73
2023/08/19 08:31:42;;;;;;;10.70;5.07;;;28.00;56.50;;;;;;5005251;28;20491;-75
2023/08/19 08:34:07;;;;;;;10.93;5.63;;;28.10;56.40;;;;;;5009907;28;20499;-75
2023/08/19 08:36:33;;;;;;;10.20;5.13;;;28.40;55.40;;;;;;5019176;28;20177;-74
2023/08/19 08:38:59;;;;;;;8.30;5.17;;;28.60;54.80;;;;;;5016971;28;20209;-72
2023/08/19 08:41:25;;;;;;;9.80;5.60;;;28.70;54.80;;;;;;5012903;28;20245;-73
2023/08/19 08:43:54;;;;;;;15.37;6.00;;;28.70;54.80;;;;;;5015058;28;20233;-73
2023/08/19 08:46:22;;;;;;;8.70;4.93;;;28.70;54.80;;;;;;5008977;28;20414;-73
2023/08/19 08:48:49;;;;;;;6.80;4.70;;;28.70;55.20;;;;;;5016833;28;20432;-73
2023/08/19 08:51:16;;;;;;;9.57;5.43;;;28.90;54.40;;;;;;5024210;28;20467;-72
2023/08/19 08:53:42;;;;;;;11.47;5.80;;;29.20;54.10;;;;;;5014186;28;20425;-73
2023/08/19 08:56:08;;;;;;;11.27;4.83;;;29.30;53.60;;;;;;5026002;28;20412;-72
2023/08/19 08:58:33;;;;;;;8.77;4.93;;;29.30;53.00;;;;;;5013730;28;20745;-73
2023/08/19 09:01:02;;;;;;;9.03;5.40;;;29.50;52.20;;;;;;5014559;28;20225;-73
2023/08/19 09:03:32;;;;;;;12.37;5.47;;;29.60;52.80;;;;;;5011432;28;20190;-72
2023/08/19 09:06:04;;;;;;;8.13;5.47;;;29.70;52.50;;;;;;5017885;28;20425;-73
2023/08/19 09:08:45;;;;;;;8.10;5.03;;;29.80;52.40;;;;;;5013226;28;20436;-73
2023/08/19 09:11:16;;;;;;;11.30;5.20;;;29.80;51.70;;;;;;5014391;28;20513;-73
2023/08/19 09:13:45;;;;;;;8.47;4.53;;;29.90;50.60;;;;;;5015300;28;20416;-74
2023/08/19 09:16:11;;;;;;;9.33;5.30;;;30.10;50.70;;;;;;5014899;28;20425;-74
2023/08/19 09:18:38;;;;;;;12.50;5.67;;;30.10;51.60;;;;;;5019700;28;21065;-74
2023/08/19 09:21:06;;;;;;;9.67;5.23;;;30.20;51.20;;;;;;5008052;28;21033;-72
2023/08/19 09:23:32;;;;;;;13.00;5.50;;;30.30;50.70;;;;;;5011279;28;20425;-72
2023/08/19 09:25:58;;;;;;;10.23;5.50;;;30.30;50.90;;;;;;5007610;28;20998;-73
2023/08/19 09:28:24;;;;;;;9.07;4.93;;;30.20;51.60;;;;;;5019005;28;20520;-73
2023/08/19 09:30:50;;;;;;;15.70;5.43;;;30.40;50.90;;;;;;5009529;28;21065;-72
2023/08/19 09:33:20;;;;;;;9.53;5.40;;;30.60;50.70;;;;;;5011572;28;20182;-73
2023/08/19 09:35:54;;;;;;;7.43;5.40;;;30.80;50.50;;;;;;5014828;28;20793;-73
2023/08/19 09:38:22;;;;;;;7.40;5.27;;;30.80;50.70;;;;;;5020105;28;20479;-74
2023/08/19 09:40:59;;;;;;;7.77;4.90;;;30.90;50.60;;;;;;5011282;28;20576;-72
2023/08/19 09:43:26;;;;;;;7.90;5.20;;;31.10;50.70;;;;;;5021173;28;20475;-73
2023/08/19 09:45:56;;;;;;;7.47;5.00;;;30.90;49.80;;;;;;5012452;28;20494;-72
2023/08/19 09:48:22;;;;;;;8.70;5.47;;;30.90;49.80;;;;;;5019289;28;20458;-74
2023/08/19 09:50:48;;;;;;;8.83;5.47;;;31.00;50.70;;;;;;5017701;28;20461;-72
2023/08/19 09:53:18;;;;;;;10.63;5.30;;;31.10;51.00;;;;;;5017449;28;20500;-72
2023/08/19 09:55:48;;;;;;;9.37;5.33;;;31.20;50.90;;;;;;5021632;28;20284;-73
2023/08/19 09:58:14;;;;;;;12.53;6.37;;;31.30;50.60;;;;;;5016033;28;20815;-74
2023/08/19 10:00:40;;;;;;;8.13;5.00;;;31.50;49.80;;;;;;5016850;28;20472;-73
2023/08/19 10:03:07;;;;;;;10.47;6.07;;;31.50;49.50;;;;;;5011197;28;20185;-73
2023/08/19 10:05:38;;;;;;;13.07;6.23;;;31.40;51.20;;;;;;5014981;28;20481;-73
2023/08/19 10:08:08;;;;;;;9.20;5.90;;;31.20;52.20;;;;;;5012545;28;20828;-72
2023/08/19 10:10:39;;;;;;;10.67;5.57;;;31.30;52.60;;;;;;5009329;28;20550;-73
2023/08/19 10:13:08;;;;;;;9.97;5.97;;;31.40;52.90;;;;;;5015441;28;20511;-73
2023/08/19 10:15:36;;;;;;;12.50;6.07;;;31.50;52.50;;;;;;5016987;28;20789;-73
2023/08/19 10:18:09;;;;;;;10.03;5.80;;;31.50;52.40;;;;;;5009524;28;20469;-73
2023/08/19 10:20:36;;;;;;;8.97;5.30;;;31.40;52.80;;;;;;5008436;28;20993;-73
2023/08/19 10:23:05;;;;;;;8.30;5.73;;;31.40;51.40;;;;;;5011373;28;20458;-73
2023/08/19 10:25:31;;;;;;;8.77;5.87;;;31.50;50.70;;;;;;5011779;28;20423;-73
2023/08/19 10:28:09;;;;;;;10.33;5.77;;;31.80;50.10;;;;;;5018373;28;20453;-73
2023/08/19 10:30:35;;;;;;;11.87;6.40;;;31.80;50.90;;;;;;5003710;28;20296;-73
2023/08/19 10:33:29;;;;;;;9.00;6.37;;;31.90;51.40;;;;;;5015363;28;20433;-73
2023/08/19 10:36:01;;;;;;;9.67;6.10;;;32.10;51.40;;;;;;5002715;28;20433;-74
2023/08/19 10:38:47;;;;;;;7.03;5.23;;;32.20;49.80;;;;;;5015828;28;20526;-73
2023/08/19 10:41:40;;;;;;;10.47;5.87;;;32.40;49.40;;;;;;5010283;28;20476;-74
2023/08/19 10:44:08;;;;;;;6.97;5.80;;;32.60;48.90;;;;;;5015210;28;20431;-72
2023/08/19 10:46:42;;;;;;;10.60;5.80;;;32.70;48.90;;;;;;5011308;28;20413;-75
2023/08/19 10:49:17;;;;;;;8.43;5.87;;;32.90;49.10;;;;;;5014668;28;20568;-73
2023/08/19 10:51:50;;;;;;;8.90;5.90;;;33.10;47.10;;;;;;5011616;28;20551;-71
2023/08/19 10:54:26;;;;;;;7.90;5.40;;;33.50;46.70;;;;;;5014779;28;20803;-72
2023/08/19 10:57:21;;;;;;;10.93;6.07;;;33.50;45.00;;;;;;5008811;28;20607;-72
2023/08/19 10:59:50;;;;;;;8.43;5.50;;;33.90;44.70;;;;;;5006015;28;20472;-72
2023/08/19 11:02:16;;;;;;;9.37;6.23;;;34.20;44.20;;;;;;5006426;28;20474;-72
2023/08/19 11:04:49;;;;;;;7.90;5.07;;;34.50;43.80;;;;;;5008845;28;20434;-72
2023/08/19 11:07:15;;;;;;;11.10;5.17;;;34.60;43.10;;;;;;5004731;28;20866;-74
2023/08/19 11:09:43;;;;;;;8.87;5.50;;;35.00;41.60;;;;;;5003390;28;20440;-72
2023/08/19 11:12:10;;;;;;;13.47;5.90;;;34.90;41.10;;;;;;5009075;28;20478;-73
2023/08/19 11:14:36;;;;;;;10.10;5.17;;;34.80;40.70;;;;;;5010866;28;20437;-75
2023/08/19 11:17:02;;;;;;;8.63;5.43;;;34.50;42.60;;;;;;5017959;28;20811;-73
2023/08/19 11:19:30;;;;;;;9.57;5.60;;;34.40;42.20;;;;;;5008828;28;20473;-74
2023/08/19 11:21:57;;;;;;;10.00;5.63;;;34.30;42.70;;;;;;5012971;28;20458;-73
2023/08/19 11:24:32;;;;;;;10.63;5.50;;;34.20;41.60;;;;;;5012855;28;20524;-72
2023/08/19 11:26:58;;;;;;;11.17;5.23;;;34.10;41.20;;;;;;5014297;28;20443;-75
2023/08/19 11:29:24;;;;;;;10.20;5.70;;;33.90;41.60;;;;;;5016620;28;20437;-73
2023/08/19 11:31:49;;;;;;;11.33;5.40;;;34.50;40.20;;;;;;5013952;28;20214;-72
2023/08/19 11:34:15;;;;;;;10.60;5.60;;;34.20;40.60;;;;;;5016103;28;20276;-74
2023/08/19 11:36:43;;;;;;;6.80;5.07;;;34.60;40.30;;;;;;5014027;28;20190;-74
2023/08/19 11:39:10;;;;;;;14.30;5.30;;;34.40;39.00;;;;;;5018426;28;20293;-74
2023/08/19 11:41:35;;;;;;;10.83;5.40;;;34.70;39.40;;;;;;5010077;28;20561;-73
2023/08/19 11:44:03;;;;;;;10.57;5.53;;;34.90;38.00;;;;;;5013717;28;21123;-73
2023/08/19 11:46:33;;;;;;;11.00;6.10;;;34.90;39.20;;;;;;5017644;28;20178;-74
2023/08/19 11:49:04;;;;;;;11.73;5.50;;;35.00;40.00;;;;;;5019076;28;20925;-74
2023/08/19 11:51:30;;;;;;;9.43;5.10;;;35.20;38.40;;;;;;5009752;28;20538;-74
2023/08/19 11:54:02;;;;;;;12.90;5.47;;;35.40;38.00;;;;;;5008235;28;20816;-73
2023/08/19 11:56:28;;;;;;;9.33;5.60;;;35.50;37.40;;;;;;5012621;28;20178;-74
2023/08/19 11:58:54;;;;;;;10.23;5.37;;;36.00;37.10;;;;;;5017158;28;20557;-74
2023/08/19 12:01:21;;;;;;;10.67;5.60;;;36.00;37.80;;;;;;5010055;28;20460;-74
2023/08/19 12:03:49;;;;;;;8.10;5.93;;;35.90;38.20;;;;;;5016885;28;20185;-73
2023/08/19 12:06:15;;;;;;;11.90;5.90;;;35.90;37.80;;;;;;5016455;28;20446;-73
2023/08/19 12:08:43;;;;;;;12.07;6.00;;;35.90;37.80;;;;;;5015505;28;20507;-74
2023/08/19 12:11:10;;;;;;;10.47;5.60;;;36.00;37.50;;;;;;5012757;28;20467;-73
2023/08/19 12:13:36;;;;;;;8.67;5.53;;;35.40;38.30;;;;;;5006080;28;20826;-73
2023/08/19 12:16:03;;;;;;;9.40;5.77;;;35.70;38.60;;;;;;5014712;28;20441;-73
2023/08/19 12:18:34;;;;;;;8.33;5.03;;;35.90;37.80;;;;;;5020685;28;20460;-73
2023/08/19 12:21:03;;;;;;;11.93;5.47;;;36.20;36.80;;;;;;5008325;28;20460;-74
2023/08/19 12:23:30;;;;;;;9.10;5.53;;;35.70;37.50;;;;;;5013872;28;20417;-73
2023/08/19 12:25:59;;;;;;;11.07;6.00;;;35.50;38.70;;;;;;5013803;28;20444;-74
2023/08/19 12:28:28;;;;;;;12.77;6.27;;;35.60;38.20;;;;;;5005354;28;20489;-72
2023/08/19 12:30:54;;;;;;;7.70;6.27;;;35.60;37.90;;;;;;5011445;28;20456;-74
2023/08/19 12:33:20;;;;;;;9.60;6.13;;;35.90;37.10;;;;;;5016024;28;20424;-74
2023/08/19 12:35:48;;;;;;;11.70;5.90;;;36.40;37.40;;;;;;5016894;28;20450;-75
2023/08/19 12:38:14;;;;;;;11.40;5.67;;;37.10;35.30;;;;;;5017488;28;20943;-74
2023/08/19 12:40:41;;;;;;;11.30;5.80;;;37.20;34.80;;;;;;5017177;28;20499;-74
2023/08/19 12:43:07;;;;;;;9.70;5.57;;;37.10;35.30;;;;;;5014523;28;20420;-74